createdAt,value
2023-01-12T00:02:23.461Z,2.89
2023-01-12T00:04:50.167Z,2.89
2023-01-12T00:07:17.928Z,3.76
2023-01-12T00:09:44.877Z,3.70
2023-01-12T00:12:12.384Z,3.63
2023-01-12T00:14:40.191Z,3.52
2023-01-12T00:17:07.048Z,3.68
2023-01-12T00:19:34.155Z,3.70
2023-01-12T00:22:07.000Z,3.72
2023-01-12T00:24:36.302Z,3.55
2023-01-12T00:27:07.995Z,3.70
2023-01-12T00:29:35.927Z,3.59
2023-01-12T00:32:03.356Z,3.58
2023-01-12T00:34:30.152Z,3.54
2023-01-12T00:36:59.525Z,3.65
2023-01-12T00:39:26.259Z,3.70
2023-01-12T00:42:11.198Z,3.71
2023-01-12T00:44:56.430Z,3.36
2023-01-12T00:47:23.156Z,3.45
2023-01-12T00:49:50.007Z,3.30
2023-01-12T00:52:30.072Z,3.58
2023-01-12T00:54:58.651Z,3.13
2023-01-12T00:57:25.314Z,2.98
2023-01-12T00:59:55.104Z,3.37
2023-01-12T01:02:22.382Z,3.35
2023-01-12T01:04:49.844Z,2.54
2023-01-12T01:07:17.199Z,3.49
2023-01-12T01:09:44.276Z,2.60
2023-01-12T01:12:11.023Z,3.38
2023-01-12T01:14:37.729Z,3.37
2023-01-12T01:17:04.325Z,2.36
2023-01-12T01:19:31.369Z,3.33
2023-01-12T01:21:57.942Z,3.25
2023-01-12T01:24:24.756Z,3.26
2023-01-12T01:26:51.704Z,3.18
2023-01-12T01:29:18.475Z,3.50
2023-01-12T01:31:47.572Z,3.49
2023-01-12T01:34:14.717Z,3.38
2023-01-12T01:36:41.439Z,3.59
2023-01-12T01:39:08.159Z,3.27
2023-01-12T01:41:34.792Z,3.65
2023-01-12T01:44:21.624Z,3.63
2023-01-12T01:46:53.817Z,3.60
2023-01-12T01:49:49.400Z,3.27
2023-01-12T01:52:20.281Z,3.42
2023-01-12T01:54:51.251Z,3.37
2023-01-12T01:57:18.411Z,3.06
2023-01-12T01:59:51.615Z,3.08
2023-01-12T02:02:18.553Z,2.92
2023-01-12T02:04:45.799Z,2.64
2023-01-12T02:07:12.660Z,3.32
2023-01-12T02:09:39.846Z,3.28
2023-01-12T02:12:26.294Z,3.42
2023-01-12T02:15:11.707Z,3.48
2023-01-12T02:17:53.079Z,3.43
2023-01-12T02:21:12.198Z,3.44
2023-01-12T02:23:38.727Z,3.46
2023-01-12T02:26:05.211Z,3.42
2023-01-12T02:28:47.891Z,2.37
2023-01-12T02:31:30.395Z,3.06
2023-01-12T02:34:00.063Z,3.16
2023-01-12T02:36:26.559Z,3.21
2023-01-12T02:39:20.560Z,3.24
2023-01-12T02:42:14.787Z,3.12
2023-01-12T02:44:47.171Z,3.13
2023-01-12T02:47:22.968Z,3.10
2023-01-12T02:49:54.710Z,3.17
2023-01-12T02:52:25.718Z,3.00
2023-01-12T02:54:54.887Z,2.90
2023-01-12T02:57:24.572Z,3.04
2023-01-12T02:59:52.172Z,3.03
2023-01-12T03:02:21.241Z,3.11
2023-01-12T03:04:47.907Z,3.17
2023-01-12T03:07:14.829Z,3.17
2023-01-12T03:10:03.588Z,3.19
2023-01-12T03:12:34.770Z,3.01
2023-01-12T03:15:06.456Z,2.73
2023-01-12T03:17:39.389Z,0.67
2023-01-12T03:20:11.341Z,3.08
2023-01-12T03:22:38.365Z,3.10
2023-01-12T03:25:11.219Z,3.08
2023-01-12T03:27:42.783Z,3.14
2023-01-12T03:30:21.388Z,3.21
2023-01-12T03:32:49.260Z,3.08
2023-01-12T03:35:16.884Z,2.72
2023-01-12T03:37:51.533Z,3.02
2023-01-12T03:40:30.891Z,2.81
2023-01-12T03:43:10.459Z,2.84
2023-01-12T03:45:47.930Z,2.35
2023-01-12T03:48:36.916Z,2.75
2023-01-12T03:51:15.150Z,2.81
2023-01-12T03:53:44.536Z,2.94
2023-01-12T03:56:13.506Z,2.99
2023-01-12T03:58:41.231Z,2.24
2023-01-12T04:01:07.853Z,2.71
2023-01-12T04:03:34.633Z,2.94
2023-01-12T04:06:01.206Z,3.04
2023-01-12T04:08:27.979Z,1.95
2023-01-12T04:10:54.639Z,2.79
2023-01-12T04:13:21.200Z,2.58
2023-01-12T04:15:48.219Z,2.88
2023-01-12T04:18:15.097Z,2.87
2023-01-12T04:20:41.770Z,2.97
2023-01-12T04:23:08.567Z,2.60
2023-01-12T04:25:35.651Z,3.01
2023-01-12T04:28:02.776Z,2.98
2023-01-12T04:30:31.626Z,2.49
2023-01-12T04:32:59.569Z,2.92
2023-01-12T04:35:26.634Z,2.63
2023-01-12T04:37:53.986Z,2.11
2023-01-12T04:40:20.807Z,1.24
2023-01-12T04:43:01.566Z,1.69
2023-01-12T04:45:33.310Z,1.82
2023-01-12T04:48:04.987Z,2.16
2023-01-12T04:50:31.745Z,2.38
2023-01-12T04:53:01.282Z,2.19
2023-01-12T04:55:27.888Z,2.39
2023-01-12T04:57:56.313Z,2.40
2023-01-12T05:00:23.261Z,1.89
2023-01-12T05:02:50.223Z,1.38
2023-01-12T05:05:16.832Z,1.74
2023-01-12T05:08:03.359Z,2.12
2023-01-12T05:10:30.457Z,2.42
2023-01-12T05:12:57.118Z,2.43
2023-01-12T05:15:23.856Z,2.45
2023-01-12T05:17:50.561Z,2.51
2023-01-12T05:20:17.175Z,2.39
2023-01-12T05:22:43.764Z,2.32
2023-01-12T05:25:10.579Z,2.75
2023-01-12T05:27:37.110Z,2.59
2023-01-12T05:30:04.153Z,2.72
2023-01-12T05:32:30.691Z,2.48
2023-01-12T05:34:57.303Z,2.59
2023-01-12T05:37:23.931Z,2.74
2023-01-12T05:39:50.542Z,2.79
2023-01-12T05:42:35.878Z,2.66
2023-01-12T05:45:02.521Z,2.75
2023-01-12T05:47:29.102Z,2.31
2023-01-12T05:49:55.690Z,2.01
2023-01-12T05:52:22.290Z,1.55
2023-01-12T05:54:48.866Z,2.05
2023-01-12T05:57:15.519Z,2.03
2023-01-12T05:59:42.194Z,2.34
2023-01-12T06:02:12.097Z,2.31
2023-01-12T06:04:39.119Z,2.21
2023-01-12T06:07:05.714Z,2.42
2023-01-12T06:09:32.472Z,2.24
2023-01-12T06:12:17.710Z,1.74
2023-01-12T06:14:44.313Z,2.69
2023-01-12T06:17:10.915Z,2.02
2023-01-12T06:19:37.661Z,2.91
2023-01-12T06:22:04.275Z,2.39
2023-01-12T06:24:30.851Z,2.31
2023-01-12T06:26:58.595Z,2.38
2023-01-12T06:29:25.215Z,2.55
2023-01-12T06:31:51.903Z,2.76
2023-01-12T06:34:18.706Z,2.90
2023-01-12T06:36:45.300Z,2.75
2023-01-12T06:39:12.871Z,2.83
2023-01-12T06:41:58.073Z,2.74
2023-01-12T06:44:24.800Z,2.91
2023-01-12T06:46:52.133Z,2.58
2023-01-12T06:49:19.681Z,3.11
2023-01-12T06:51:49.028Z,3.11
2023-01-12T06:54:18.408Z,3.16
2023-01-12T06:56:45.320Z,3.17
2023-01-12T06:59:12.604Z,3.13
2023-01-12T07:01:40.628Z,3.10
2023-01-12T07:04:07.449Z,2.19
2023-01-12T07:06:34.581Z,3.03
2023-01-12T07:09:01.188Z,2.99
2023-01-12T07:11:27.774Z,2.97
2023-01-12T07:13:55.648Z,2.85
2023-01-12T07:16:22.589Z,2.94
2023-01-12T07:18:49.620Z,2.91
2023-01-12T07:21:19.730Z,2.99
2023-01-12T07:23:46.421Z,2.56
2023-01-12T07:26:13.043Z,2.75
2023-01-12T07:28:40.070Z,2.19
2023-01-12T07:31:06.980Z,2.12
2023-01-12T07:33:34.463Z,2.13
2023-01-12T07:36:02.034Z,1.23
2023-01-12T07:38:29.558Z,2.30
2023-01-12T07:41:00.581Z,2.54
2023-01-12T07:43:27.311Z,2.65
2023-01-12T07:45:58.013Z,2.58
2023-01-12T07:48:26.609Z,1.93
2023-01-12T07:50:53.734Z,2.58
2023-01-12T07:53:20.804Z,1.81
2023-01-12T07:55:47.459Z,2.40
2023-01-12T07:58:14.161Z,2.90
2023-01-12T08:00:40.786Z,2.87
2023-01-12T08:03:10.161Z,2.85
2023-01-12T08:05:38.204Z,1.78
2023-01-12T08:08:05.764Z,2.87
2023-01-12T08:10:32.614Z,2.91
2023-01-12T08:12:59.175Z,2.85
2023-01-12T08:15:29.359Z,2.47
2023-01-12T08:18:03.816Z,1.50
2023-01-12T08:20:34.987Z,1.81
2023-01-12T08:23:09.228Z,1.80
2023-01-12T08:25:44.492Z,0.83
2023-01-12T08:28:19.215Z,1.64
2023-01-12T08:30:48.711Z,1.83
2023-01-12T08:33:16.057Z,2.13
2023-01-12T08:35:46.214Z,2.07
2023-01-12T08:38:13.210Z,2.29
2023-01-12T08:40:58.296Z,2.09
2023-01-12T08:43:43.432Z,1.90
2023-01-12T08:46:10.075Z,2.12
2023-01-12T08:48:37.794Z,2.14
2023-01-12T08:51:06.440Z,2.47
2023-01-12T08:53:33.022Z,2.71
2023-01-12T08:55:59.795Z,2.85
2023-01-12T08:58:26.401Z,2.62
2023-01-12T09:00:53.349Z,2.96
2023-01-12T09:03:19.956Z,3.04
2023-01-12T09:05:47.854Z,3.08
2023-01-12T09:08:14.808Z,3.15
2023-01-12T09:10:41.399Z,3.17
2023-01-12T09:13:07.979Z,3.21
2023-01-12T09:15:34.616Z,3.29
2023-01-12T09:18:01.215Z,3.31
2023-01-12T09:20:27.807Z,3.38
2023-01-12T09:22:54.445Z,3.39
2023-01-12T09:25:21.006Z,3.27
2023-01-12T09:27:47.545Z,3.20
2023-01-12T09:30:14.347Z,2.58
2023-01-12T09:32:40.862Z,3.39
2023-01-12T09:35:07.763Z,3.23
2023-01-12T09:37:34.434Z,3.34
2023-01-12T09:40:01.110Z,3.34
2023-01-12T09:42:46.461Z,3.30
2023-01-12T09:45:42.757Z,3.33
2023-01-12T09:48:13.099Z,3.37
2023-01-12T09:50:51.420Z,2.56
2023-01-12T09:53:32.021Z,3.45
2023-01-12T09:56:09.224Z,3.47
2023-01-12T09:58:58.025Z,3.56
2023-01-12T10:01:29.805Z,2.47
2023-01-12T10:03:59.837Z,3.49
2023-01-12T10:06:26.533Z,3.41
2023-01-12T10:08:58.231Z,3.50
2023-01-12T10:11:58.545Z,3.61
2023-01-12T10:14:44.075Z,3.71
2023-01-12T10:17:38.642Z,3.71
2023-01-12T10:20:08.690Z,3.55
2023-01-12T10:22:43.895Z,3.62
2023-01-12T10:25:19.700Z,3.46
2023-01-12T10:27:48.708Z,3.53
2023-01-12T10:30:32.061Z,3.47
2023-01-12T10:33:14.211Z,3.28
2023-01-12T10:36:02.776Z,3.49
2023-01-12T10:38:38.519Z,3.49
2023-01-12T10:41:06.905Z,3.31
2023-01-12T10:43:36.571Z,3.23
2023-01-12T10:46:21.461Z,3.59
2023-01-12T10:48:50.343Z,3.63
2023-01-12T10:51:33.622Z,2.62
2023-01-12T10:54:09.438Z,3.67
2023-01-12T10:56:42.760Z,3.16
2023-01-12T10:59:12.048Z,3.72
2023-01-12T11:01:59.205Z,3.72
2023-01-12T11:04:29.398Z,3.73
2023-01-12T11:07:16.835Z,3.78
2023-01-12T11:09:44.167Z,2.91
2023-01-12T11:12:25.303Z,3.73
2023-01-12T11:15:03.071Z,3.81
2023-01-12T11:17:36.777Z,3.89
2023-01-12T11:20:14.335Z,3.88
2023-01-12T11:22:42.959Z,3.86
2023-01-12T11:25:09.490Z,3.88
2023-01-12T11:27:43.200Z,3.64
2023-01-12T11:30:26.052Z,3.83
2023-01-12T11:33:22.831Z,3.81
2023-01-12T11:35:59.963Z,2.97
2023-01-12T11:38:33.815Z,3.75
2023-01-12T11:41:01.525Z,3.85
2023-01-12T11:43:57.263Z,3.85
2023-01-12T11:46:26.823Z,3.83
2023-01-12T11:49:23.046Z,3.86
2023-01-12T11:51:56.007Z,2.44
2023-01-12T11:54:24.438Z,3.96
2023-01-12T11:57:23.414Z,3.95
2023-01-12T12:00:03.607Z,3.95
2023-01-12T12:03:06.627Z,3.98
2023-01-12T12:05:42.597Z,3.96
2023-01-12T12:08:27.589Z,4.00
2023-01-12T12:11:21.531Z,4.02
2023-01-12T12:14:23.819Z,4.01
2023-01-12T12:17:13.784Z,4.05
2023-01-12T12:20:00.502Z,4.08
2023-01-12T12:23:04.372Z,4.06
2023-01-12T12:25:57.384Z,4.00
2023-01-12T12:28:42.724Z,4.06
2023-01-12T12:31:16.786Z,4.09
2023-01-12T12:34:02.246Z,4.03
2023-01-12T12:37:02.972Z,3.97
2023-01-12T12:39:45.533Z,3.91
2023-01-12T12:42:56.837Z,3.07
2023-01-12T12:45:26.429Z,3.96
2023-01-12T12:47:59.295Z,3.97
2023-01-12T12:50:44.167Z,3.88
2023-01-12T12:53:32.793Z,3.74
2023-01-12T12:56:04.570Z,3.79
2023-01-12T12:58:52.787Z,3.93
2023-01-12T13:01:19.423Z,3.93
2023-01-12T13:03:48.150Z,3.91
2023-01-12T13:06:46.399Z,3.88
2023-01-12T13:09:14.110Z,3.87
2023-01-12T13:12:00.333Z,3.79
2023-01-12T13:14:34.744Z,3.98
2023-01-12T13:17:19.626Z,3.85
2023-01-12T13:20:06.245Z,3.90
2023-01-12T13:22:49.759Z,3.82
2023-01-12T13:25:16.479Z,3.78
2023-01-12T13:27:48.899Z,3.81
2023-01-12T13:30:23.977Z,3.27
2023-01-12T13:33:17.117Z,3.78
2023-01-12T13:35:46.900Z,3.71
2023-01-12T13:38:33.519Z,3.05
2023-01-12T13:41:17.847Z,3.77
2023-01-12T13:43:47.420Z,3.77
2023-01-12T13:46:17.695Z,3.80
2023-01-12T13:48:48.962Z,3.49
2023-01-12T13:51:25.191Z,3.19
2023-01-12T13:54:09.573Z,3.56
2023-01-12T13:56:36.568Z,3.55
2023-01-12T13:59:06.272Z,3.55
2023-01-12T14:01:45.039Z,2.31
2023-01-12T14:04:20.004Z,3.58
2023-01-12T14:07:22.877Z,3.59
2023-01-12T14:10:28.272Z,3.51
2023-01-12T14:13:39.488Z,3.44
2023-01-12T14:16:31.143Z,3.43
2023-01-12T14:18:57.951Z,3.47
2023-01-12T14:21:37.496Z,2.81
2023-01-12T14:24:20.939Z,2.72
2023-01-12T14:26:47.767Z,3.45
2023-01-12T14:29:15.019Z,3.10
2023-01-12T14:31:48.582Z,3.57
2023-01-12T14:34:52.316Z,3.45
2023-01-12T14:37:30.126Z,3.44
2023-01-12T14:39:57.066Z,3.46
2023-01-12T14:42:42.670Z,2.48
2023-01-12T14:45:37.039Z,3.49
2023-01-12T14:48:28.270Z,3.48
2023-01-12T14:51:10.536Z,3.40
2023-01-12T14:53:42.089Z,3.36
2023-01-12T14:56:18.457Z,3.55
2023-01-12T14:58:46.536Z,2.79
2023-01-12T15:01:27.137Z,3.39
2023-01-12T15:03:54.189Z,3.47
2023-01-12T15:06:20.919Z,3.20
2023-01-12T15:09:00.449Z,3.41
2023-01-12T15:11:37.911Z,3.44
2023-01-12T15:14:06.290Z,3.43
2023-01-12T15:16:51.189Z,3.33
2023-01-12T15:19:36.256Z,3.27
2023-01-12T15:22:21.417Z,3.34
2023-01-12T15:25:06.665Z,3.43
2023-01-12T15:27:33.440Z,3.46
2023-01-12T15:30:00.149Z,3.40
2023-01-12T15:32:46.178Z,2.43
2023-01-12T15:35:26.334Z,3.39
2023-01-12T15:37:55.094Z,3.23
2023-01-12T15:40:22.924Z,2.80
2023-01-12T15:42:53.039Z,2.18
2023-01-12T15:45:40.444Z,3.23
2023-01-12T15:48:07.113Z,3.29
2023-01-12T15:50:34.221Z,3.27
2023-01-12T15:53:01.537Z,3.45
2023-01-12T15:55:31.338Z,3.42
2023-01-12T15:57:58.047Z,3.33
2023-01-12T16:00:24.731Z,3.45
2023-01-12T16:02:52.657Z,3.10
2023-01-12T16:05:21.954Z,3.34
2023-01-12T16:07:49.106Z,3.43
2023-01-12T16:10:17.115Z,3.47
2023-01-12T16:12:44.424Z,2.95
2023-01-12T16:15:23.038Z,3.42
2023-01-12T16:17:52.651Z,3.24
2023-01-12T16:20:20.398Z,3.30
2023-01-12T16:22:47.606Z,3.39
2023-01-12T16:25:15.672Z,3.37
2023-01-12T16:27:42.490Z,3.36
2023-01-12T16:30:13.573Z,3.31
2023-01-12T16:32:45.672Z,3.39
2023-01-12T16:35:13.443Z,2.24
2023-01-12T16:37:40.346Z,3.28
2023-01-12T16:40:07.553Z,2.72
2023-01-12T16:42:34.216Z,3.25
2023-01-12T16:45:00.868Z,3.23
2023-01-12T16:47:27.400Z,3.28
2023-01-12T16:49:53.976Z,3.34
2023-01-12T16:52:22.004Z,3.41
2023-01-12T16:54:48.625Z,3.33
2023-01-12T16:57:17.772Z,3.02
2023-01-12T16:59:45.278Z,3.28
2023-01-12T17:02:16.293Z,3.30
2023-01-12T17:04:43.795Z,3.29
2023-01-12T17:07:10.752Z,2.94
2023-01-12T17:09:39.383Z,3.37
2023-01-12T17:12:07.161Z,3.21
2023-01-12T17:14:34.700Z,1.91
2023-01-12T17:17:04.967Z,3.10
2023-01-12T17:19:34.139Z,2.50
2023-01-12T17:22:02.249Z,3.22
2023-01-12T17:24:30.633Z,3.29
2023-01-12T17:26:58.005Z,2.05
2023-01-12T17:29:26.882Z,2.97
2023-01-12T17:31:56.527Z,3.28
2023-01-12T17:34:23.545Z,3.26
2023-01-12T17:36:50.150Z,3.32
2023-01-12T17:39:16.753Z,3.28
2023-01-12T17:42:01.898Z,3.08
2023-01-12T17:44:28.631Z,2.45
2023-01-12T17:46:55.196Z,2.45
2023-01-12T17:49:21.900Z,2.82
2023-01-12T17:51:48.887Z,3.03
2023-01-12T17:54:15.671Z,2.86
2023-01-12T17:56:43.087Z,3.18
2023-01-12T17:59:16.457Z,2.92
2023-01-12T18:01:43.425Z,0.82
2023-01-12T18:04:10.016Z,3.13
2023-01-12T18:06:36.782Z,3.21
2023-01-12T18:09:03.668Z,2.71
2023-01-12T18:11:31.496Z,2.20
2023-01-12T18:13:59.609Z,2.76
2023-01-12T18:16:27.022Z,2.91
2023-01-12T18:18:54.200Z,2.96
2023-01-12T18:21:24.204Z,2.98
2023-01-12T18:23:51.525Z,2.96
2023-01-12T18:26:21.528Z,2.84
2023-01-12T18:28:48.258Z,2.32
2023-01-12T18:31:18.497Z,2.65
2023-01-12T18:33:51.562Z,1.98
2023-01-12T18:36:23.855Z,1.97
2023-01-12T18:38:51.649Z,1.91
2023-01-12T18:41:38.908Z,2.16
2023-01-12T18:44:06.763Z,2.26
2023-01-12T18:46:53.736Z,2.42
2023-01-12T18:49:21.741Z,2.74
2023-01-12T18:52:06.811Z,1.96
2023-01-12T18:54:35.861Z,2.92
2023-01-12T18:57:02.468Z,3.04
2023-01-12T18:59:30.034Z,2.36
2023-01-12T19:01:56.714Z,2.95
2023-01-12T19:04:37.559Z,2.97
2023-01-12T19:07:04.220Z,2.90
2023-01-12T19:09:37.365Z,2.92
2023-01-12T19:12:07.022Z,2.92
2023-01-12T19:14:52.168Z,3.11
2023-01-12T19:17:38.660Z,2.90
2023-01-12T19:20:09.000Z,3.16
2023-01-12T19:22:54.104Z,2.66
2023-01-12T19:25:41.802Z,3.33
2023-01-12T19:28:32.330Z,2.18
2023-01-12T19:31:04.646Z,3.38
2023-01-12T19:33:31.429Z,3.39
2023-01-12T19:35:59.167Z,3.44
2023-01-12T19:38:25.707Z,3.47
2023-01-12T19:40:54.345Z,3.44
2023-01-12T19:43:26.132Z,3.28
2023-01-12T19:45:59.238Z,2.68
2023-01-12T19:48:26.705Z,3.33
2023-01-12T19:50:54.202Z,3.26
2023-01-12T19:53:28.576Z,3.21
2023-01-12T19:55:55.245Z,3.37
2023-01-12T19:58:22.198Z,3.36
2023-01-12T20:00:49.927Z,3.41
2023-01-12T20:03:19.705Z,3.41
2023-01-12T20:05:48.604Z,3.37
2023-01-12T20:08:15.453Z,3.41
2023-01-12T20:10:42.137Z,3.37
2023-01-12T20:13:10.611Z,3.43
2023-01-12T20:15:39.193Z,3.46
2023-01-12T20:18:08.664Z,3.50
2023-01-12T20:20:35.700Z,3.43
2023-01-12T20:23:02.266Z,2.55
2023-01-12T20:25:29.017Z,2.47
2023-01-12T20:27:55.657Z,2.18
2023-01-12T20:30:36.835Z,2.31
2023-01-12T20:33:05.601Z,2.94
2023-01-12T20:35:32.537Z,3.06
2023-01-12T20:37:59.202Z,3.15
2023-01-12T20:40:25.816Z,3.26
2023-01-12T20:42:52.496Z,3.07
2023-01-12T20:45:19.090Z,3.18
2023-01-12T20:47:45.880Z,3.29
2023-01-12T20:50:14.069Z,2.34
2023-01-12T20:52:41.546Z,3.36
2023-01-12T20:55:08.373Z,2.71
2023-01-12T20:57:38.726Z,2.57
2023-01-12T21:00:07.059Z,2.43
2023-01-12T21:02:33.743Z,2.72
2023-01-12T21:05:00.386Z,2.06
2023-01-12T21:07:27.086Z,2.92
2023-01-12T21:09:53.698Z,2.77
2023-01-12T21:12:20.285Z,2.75
2023-01-12T21:14:46.910Z,2.32
2023-01-12T21:17:13.496Z,2.52
2023-01-12T21:19:40.471Z,0.86
2023-01-12T21:22:07.256Z,1.31
2023-01-12T21:24:33.928Z,2.08
2023-01-12T21:27:00.616Z,1.89
2023-01-12T21:29:27.265Z,1.93
2023-01-12T21:31:53.874Z,1.47
2023-01-12T21:34:20.783Z,2.02
2023-01-12T21:36:47.385Z,2.36
2023-01-12T21:39:14.230Z,1.47
2023-01-12T21:42:12.897Z,2.11
2023-01-12T21:44:39.553Z,2.44
2023-01-12T21:47:06.078Z,2.32
2023-01-12T21:49:32.684Z,2.84
2023-01-12T21:51:59.216Z,1.50
2023-01-12T21:54:25.909Z,2.88
2023-01-12T21:56:52.939Z,3.05
2023-01-12T21:59:19.538Z,2.90
2023-01-12T22:01:46.233Z,2.84
2023-01-12T22:04:12.999Z,3.05
2023-01-12T22:06:39.584Z,2.19
2023-01-12T22:09:06.177Z,3.22
2023-01-12T22:11:32.724Z,3.22
2023-01-12T22:13:59.383Z,3.25
2023-01-12T22:16:26.004Z,2.64
2023-01-12T22:18:52.745Z,3.08
2023-01-12T22:21:21.173Z,3.17
2023-01-12T22:23:48.675Z,2.88
2023-01-12T22:26:16.774Z,3.20
2023-01-12T22:28:47.573Z,3.30
2023-01-12T22:31:19.447Z,3.27
2023-01-12T22:34:07.114Z,3.33
2023-01-12T22:36:42.583Z,3.25
2023-01-12T22:39:11.968Z,3.20
2023-01-12T22:41:40.043Z,3.04
2023-01-12T22:44:06.614Z,3.21
2023-01-12T22:46:33.328Z,3.22
2023-01-12T22:48:59.887Z,3.28
2023-01-12T22:51:28.051Z,3.20
2023-01-12T22:53:55.507Z,3.24
2023-01-12T22:56:22.804Z,3.49
2023-01-12T22:58:51.572Z,3.56
2023-01-12T23:01:19.558Z,2.75
2023-01-12T23:03:46.371Z,3.37
2023-01-12T23:06:15.748Z,3.37
2023-01-12T23:08:43.986Z,3.58
2023-01-12T23:11:14.349Z,2.91
2023-01-12T23:13:43.113Z,3.57
2023-01-12T23:16:11.098Z,3.50
2023-01-12T23:18:39.947Z,3.51
2023-01-12T23:21:15.440Z,3.54
2023-01-12T23:23:44.837Z,3.59
2023-01-12T23:26:14.706Z,2.70
2023-01-12T23:28:46.359Z,2.81
2023-01-12T23:31:16.356Z,3.56
2023-01-12T23:33:43.272Z,3.52
2023-01-12T23:36:13.625Z,3.54
2023-01-12T23:38:40.784Z,3.55
2023-01-12T23:41:26.711Z,2.91
2023-01-12T23:43:56.287Z,3.55
2023-01-12T23:46:24.049Z,3.57
2023-01-12T23:48:54.621Z,3.57
2023-01-12T23:51:22.548Z,3.49
2023-01-12T23:53:51.962Z,3.54
2023-01-12T23:56:19.622Z,3.54
2023-01-12T23:58:47.762Z,2.80
